createdAt,value
2022-08-31T00:01:36.432Z,17.96
2022-08-31T00:05:39.966Z,17.95
2022-08-31T00:09:43.110Z,17.98
2022-08-31T00:13:49.345Z,17.95
2022-08-31T00:17:53.707Z,17.84
2022-08-31T00:21:56.881Z,17.84
2022-08-31T00:26:00.934Z,17.77
2022-08-31T00:30:06.137Z,17.81
2022-08-31T00:34:09.350Z,17.81
2022-08-31T00:38:13.471Z,17.93
2022-08-31T00:42:17.449Z,17.97
2022-08-31T00:46:25.016Z,17.96
2022-08-31T00:50:29.074Z,17.96
2022-08-31T00:54:38.212Z,18.08
2022-08-31T00:58:41.516Z,18.02
2022-08-31T01:02:46.147Z,17.89
2022-08-31T01:06:50.688Z,17.63
2022-08-31T01:10:53.779Z,17.34
2022-08-31T01:14:58.308Z,17.34
2022-08-31T01:19:06.661Z,17.41
2022-08-31T01:23:14.036Z,17.41
2022-08-31T01:27:20.975Z,17.48
2022-08-31T01:31:30.658Z,17.45
2022-08-31T01:35:35.043Z,17.39
2022-08-31T01:39:39.528Z,17.35
2022-08-31T01:43:42.889Z,17.17
2022-08-31T01:47:46.559Z,16.97
2022-08-31T01:51:51.153Z,16.73
2022-08-31T01:55:56.161Z,16.53
2022-08-31T02:00:00.577Z,16.36
2022-08-31T02:04:22.782Z,16.24
2022-08-31T02:08:27.140Z,16.11
2022-08-31T02:12:31.531Z,15.95
2022-08-31T02:16:35.154Z,15.81
2022-08-31T02:20:39.210Z,15.74
2022-08-31T02:24:42.737Z,15.83
2022-08-31T02:28:47.599Z,15.80
2022-08-31T02:32:50.676Z,15.68
2022-08-31T02:36:53.711Z,15.75
2022-08-31T02:40:57.139Z,15.68
2022-08-31T02:45:02.315Z,15.60
2022-08-31T02:49:08.377Z,15.61
2022-08-31T02:53:14.117Z,15.54
2022-08-31T02:57:26.499Z,15.56
2022-08-31T03:01:31.244Z,15.48
2022-08-31T03:10:51.160Z,15.46
2022-08-31T03:14:54.686Z,15.41
2022-08-31T03:18:59.340Z,15.61
2022-08-31T03:23:03.575Z,15.54
2022-08-31T03:27:08.459Z,15.50
2022-08-31T03:31:11.653Z,15.55
2022-08-31T03:35:18.323Z,15.56
2022-08-31T03:39:22.093Z,15.69
2022-08-31T03:43:25.712Z,15.73
2022-08-31T03:47:29.502Z,15.68
2022-08-31T03:51:35.905Z,15.66
2022-08-31T03:55:42.351Z,15.56
2022-08-31T03:59:46.644Z,15.62
2022-08-31T04:03:56.393Z,15.54
2022-08-31T04:08:25.599Z,15.59
2022-08-31T04:12:47.227Z,15.54
2022-08-31T04:17:10.549Z,15.50
2022-08-31T04:21:22.945Z,15.42
2022-08-31T04:25:28.705Z,15.48
2022-08-31T04:29:32.033Z,15.41
2022-08-31T04:33:35.259Z,15.33
2022-08-31T04:37:46.331Z,15.31
2022-08-31T04:41:51.709Z,15.36
2022-08-31T04:45:55.619Z,15.42
2022-08-31T04:49:58.809Z,15.46
2022-08-31T04:54:04.155Z,15.47
2022-08-31T04:58:08.779Z,15.50
2022-08-31T05:02:11.957Z,15.52
2022-08-31T05:06:19.250Z,15.43
2022-08-31T05:10:24.822Z,15.42
2022-08-31T05:14:29.555Z,15.36
2022-08-31T05:18:41.879Z,15.26
2022-08-31T05:22:45.079Z,15.24
2022-08-31T05:26:50.358Z,15.26
2022-08-31T05:30:56.253Z,15.30
2022-08-31T05:35:09.950Z,15.29
2022-08-31T05:39:14.804Z,15.30
2022-08-31T05:43:18.130Z,15.32
2022-08-31T05:47:22.542Z,15.42
2022-08-31T05:51:25.978Z,15.44
2022-08-31T05:55:29.269Z,15.50
2022-08-31T05:59:32.830Z,15.54
2022-08-31T06:03:38.224Z,15.66
2022-08-31T06:07:41.574Z,15.74
2022-08-31T06:11:51.475Z,15.80
2022-08-31T06:15:56.016Z,15.97
2022-08-31T06:20:00.513Z,16.05
2022-08-31T06:24:05.493Z,16.40
2022-08-31T06:28:14.413Z,16.66
2022-08-31T06:32:27.056Z,16.84
2022-08-31T06:36:38.373Z,17.06
2022-08-31T06:41:15.979Z,17.07
2022-08-31T06:45:39.121Z,17.39
2022-08-31T06:50:00.909Z,17.36
2022-08-31T06:54:28.093Z,17.64
2022-08-31T06:58:53.997Z,17.54
2022-08-31T07:03:35.516Z,17.60
2022-08-31T07:07:38.760Z,17.95
2022-08-31T07:11:45.774Z,18.33
2022-08-31T07:15:49.262Z,18.15
2022-08-31T07:19:52.739Z,18.26
2022-08-31T07:24:02.366Z,18.63
2022-08-31T07:28:07.173Z,19.07
2022-08-31T07:32:13.227Z,19.21
2022-08-31T07:36:18.921Z,18.80
2022-08-31T07:40:57.935Z,18.83
2022-08-31T07:45:06.394Z,18.83
2022-08-31T07:49:13.892Z,19.01
2022-08-31T07:53:27.417Z,18.83
2022-08-31T07:57:54.809Z,18.87
2022-08-31T08:02:02.467Z,18.42
2022-08-31T08:06:12.950Z,18.63
2022-08-31T08:10:41.036Z,18.99
2022-08-31T08:15:08.757Z,18.94
2022-08-31T08:19:37.376Z,19.02
2022-08-31T08:23:40.793Z,19.00
2022-08-31T08:28:29.135Z,18.99
2022-08-31T08:32:32.487Z,19.19
2022-08-31T08:36:40.958Z,19.56
2022-08-31T08:40:45.141Z,19.18
2022-08-31T08:44:49.421Z,19.61
2022-08-31T08:48:55.891Z,19.50
2022-08-31T08:53:05.398Z,19.82
2022-08-31T08:57:15.032Z,20.55
2022-08-31T09:01:25.835Z,21.12
2022-08-31T09:05:48.639Z,22.47
2022-08-31T09:10:15.449Z,22.22
2022-08-31T09:14:34.335Z,22.15
2022-08-31T09:18:48.288Z,23.26
2022-08-31T09:22:54.651Z,24.42
2022-08-31T09:27:17.438Z,22.79
2022-08-31T09:31:37.560Z,22.97
2022-08-31T09:35:41.469Z,23.84
2022-08-31T09:39:48.978Z,24.16
2022-08-31T09:43:55.409Z,24.39
2022-08-31T09:48:01.492Z,24.47
2022-08-31T09:52:45.908Z,25.13
2022-08-31T09:56:55.646Z,24.93
2022-08-31T10:01:13.993Z,25.06
2022-08-31T10:05:32.454Z,26.08
2022-08-31T10:09:41.151Z,24.51
2022-08-31T10:13:49.809Z,25.39
2022-08-31T10:18:03.236Z,24.59
2022-08-31T10:22:11.615Z,25.49
2022-08-31T10:26:19.150Z,26.15
2022-08-31T10:30:27.626Z,26.08
2022-08-31T10:34:55.314Z,25.32
2022-08-31T10:38:59.063Z,24.91
2022-08-31T10:43:14.279Z,26.27
2022-08-31T10:47:24.935Z,24.71
2022-08-31T10:51:48.138Z,27.11
2022-08-31T10:56:02.332Z,26.22
2022-08-31T11:00:08.804Z,26.85
2022-08-31T11:04:34.577Z,25.92
2022-08-31T11:08:49.088Z,26.80
2022-08-31T11:12:57.782Z,25.36
2022-08-31T11:17:21.663Z,25.83
2022-08-31T11:21:46.582Z,26.50
2022-08-31T11:26:34.586Z,25.71
2022-08-31T11:30:45.856Z,25.79
2022-08-31T11:34:56.599Z,26.32
2022-08-31T11:39:44.541Z,27.12
2022-08-31T11:43:53.871Z,25.93
2022-08-31T11:47:57.165Z,27.75
2022-08-31T11:52:07.748Z,28.33
2022-08-31T11:56:14.530Z,26.90
2022-08-31T12:00:21.310Z,27.09
2022-08-31T12:05:00.754Z,26.46
2022-08-31T12:09:21.272Z,26.62
2022-08-31T12:13:49.834Z,26.11
2022-08-31T12:18:17.361Z,25.57
2022-08-31T12:23:31.092Z,26.65
2022-08-31T12:27:46.291Z,26.24
2022-08-31T12:32:23.285Z,25.40
2022-08-31T12:36:30.159Z,25.49
2022-08-31T12:40:35.836Z,25.73
2022-08-31T12:44:42.927Z,25.96
2022-08-31T12:49:04.489Z,26.68
2022-08-31T12:53:36.285Z,27.77
2022-08-31T12:57:50.897Z,27.31
2022-08-31T13:01:54.556Z,27.17
2022-08-31T13:06:05.768Z,27.22
2022-08-31T13:10:13.009Z,27.25
2022-08-31T13:14:21.049Z,27.03
2022-08-31T13:18:27.331Z,26.06
2022-08-31T13:22:32.859Z,26.65
2022-08-31T13:26:38.630Z,26.09
2022-08-31T13:30:55.339Z,26.08
2022-08-31T13:35:03.044Z,25.72
2022-08-31T13:39:15.844Z,25.52
2022-08-31T13:43:30.633Z,25.81
2022-08-31T13:47:45.833Z,26.62
2022-08-31T13:52:05.762Z,26.65
2022-08-31T13:56:43.625Z,27.34
2022-08-31T14:00:50.403Z,27.80
2022-08-31T14:05:01.514Z,26.67
2022-08-31T14:09:17.051Z,25.56
2022-08-31T14:13:27.945Z,26.00
2022-08-31T14:17:34.282Z,25.22
2022-08-31T14:21:42.172Z,25.46
2022-08-31T14:25:45.256Z,27.00
2022-08-31T14:29:48.362Z,27.88
2022-08-31T14:34:23.456Z,27.47
2022-08-31T14:38:29.824Z,26.30
2022-08-31T14:42:36.901Z,25.73
2022-08-31T14:46:43.682Z,25.68
2022-08-31T14:50:48.904Z,25.02
2022-08-31T14:54:53.968Z,24.93
2022-08-31T14:58:58.822Z,24.92
2022-08-31T15:03:03.153Z,25.48
2022-08-31T15:07:10.079Z,26.01
2022-08-31T15:11:16.362Z,27.85
2022-08-31T15:15:21.270Z,27.86
2022-08-31T15:19:25.225Z,28.45
2022-08-31T15:23:29.839Z,28.22
2022-08-31T15:27:33.118Z,27.00
2022-08-31T15:31:36.346Z,26.18
2022-08-31T15:35:42.264Z,27.13
2022-08-31T15:39:49.445Z,27.39
2022-08-31T15:43:52.751Z,27.50
2022-08-31T15:48:13.920Z,27.14
2022-08-31T15:52:19.339Z,26.45
2022-08-31T15:56:24.420Z,25.80
2022-08-31T16:00:29.213Z,25.97
2022-08-31T16:04:33.516Z,25.54
2022-08-31T16:08:38.274Z,26.72
2022-08-31T16:12:43.745Z,27.56
2022-08-31T16:16:50.503Z,27.89
2022-08-31T16:20:57.419Z,27.55
2022-08-31T16:25:01.593Z,27.18
2022-08-31T16:29:08.775Z,27.04
2022-08-31T16:33:12.379Z,26.60
2022-08-31T16:37:15.930Z,26.96
2022-08-31T16:41:20.096Z,26.81
2022-08-31T16:45:24.862Z,26.94
2022-08-31T16:49:40.443Z,26.39
2022-08-31T16:53:47.736Z,26.46
2022-08-31T16:57:51.315Z,26.47
2022-08-31T17:01:57.274Z,26.84
2022-08-31T17:06:01.715Z,26.54
2022-08-31T17:10:07.214Z,26.56
2022-08-31T17:14:13.674Z,26.07
2022-08-31T17:18:23.192Z,25.70
2022-08-31T17:22:32.666Z,25.65
2022-08-31T17:26:37.916Z,25.33
2022-08-31T17:30:44.903Z,25.21
2022-08-31T17:34:52.188Z,24.95
2022-08-31T17:39:00.460Z,24.40
2022-08-31T17:43:06.413Z,24.25
2022-08-31T17:47:10.757Z,23.87
2022-08-31T17:51:27.154Z,23.50
2022-08-31T17:55:32.238Z,23.39
2022-08-31T17:59:44.103Z,23.23
2022-08-31T18:03:47.373Z,23.04
2022-08-31T18:07:51.958Z,22.96
2022-08-31T18:11:55.979Z,22.88
2022-08-31T18:15:59.376Z,22.82
2022-08-31T18:20:03.619Z,22.68
2022-08-31T18:24:09.884Z,22.55
2022-08-31T18:28:21.590Z,22.52
2022-08-31T18:32:29.373Z,22.44
2022-08-31T18:36:39.061Z,22.42
2022-08-31T18:41:01.485Z,22.46
2022-08-31T18:45:19.597Z,22.43
2022-08-31T18:49:23.408Z,22.43
2022-08-31T18:53:30.238Z,22.41
2022-08-31T18:57:42.802Z,22.33
2022-08-31T19:01:52.900Z,22.34
2022-08-31T19:05:57.510Z,22.29
2022-08-31T19:10:00.686Z,22.24
2022-08-31T19:14:05.518Z,22.12
2022-08-31T19:18:09.055Z,21.98
2022-08-31T19:22:13.094Z,21.92
2022-08-31T19:26:25.461Z,21.88
2022-08-31T19:30:30.326Z,21.77
2022-08-31T19:34:36.017Z,21.71
2022-08-31T19:38:42.109Z,21.66
2022-08-31T19:43:43.619Z,21.51
2022-08-31T19:47:24.437Z,21.29
2022-08-31T19:51:31.448Z,21.26
2022-08-31T19:55:34.840Z,21.12
2022-08-31T19:59:38.679Z,21.02
2022-08-31T20:03:43.115Z,20.87
2022-08-31T20:07:46.519Z,20.77
2022-08-31T20:11:50.507Z,20.66
2022-08-31T20:15:57.507Z,20.54
2022-08-31T20:20:03.510Z,20.53
2022-08-31T20:24:09.729Z,20.45
2022-08-31T20:28:15.233Z,20.39
2022-08-31T20:32:19.173Z,20.34
2022-08-31T20:36:27.268Z,20.24
2022-08-31T20:40:30.637Z,20.16
2022-08-31T20:44:37.718Z,20.03
2022-08-31T20:48:58.442Z,20.04
2022-08-31T20:53:09.052Z,19.98
2022-08-31T20:57:14.710Z,19.93
2022-08-31T21:01:18.346Z,19.93
2022-08-31T21:05:38.938Z,19.85
2022-08-31T21:09:45.913Z,19.88
2022-08-31T21:13:50.146Z,19.76
2022-08-31T21:17:57.178Z,19.66
2022-08-31T21:22:01.353Z,19.58
2022-08-31T21:26:08.826Z,19.65
2022-08-31T21:30:13.574Z,19.60
2022-08-31T21:34:19.515Z,19.55
2022-08-31T21:38:22.721Z,19.48
2022-08-31T21:42:27.759Z,19.44
2022-08-31T21:46:31.394Z,19.26
2022-08-31T21:50:35.043Z,19.27
2022-08-31T21:54:44.781Z,19.19
2022-08-31T21:58:53.798Z,19.10
2022-08-31T22:02:59.618Z,19.09
2022-08-31T22:07:03.836Z,19.06
2022-08-31T22:11:09.537Z,18.97
2022-08-31T22:15:16.896Z,18.79
2022-08-31T22:19:23.861Z,18.80
2022-08-31T22:23:27.162Z,18.71
2022-08-31T22:27:30.680Z,18.64
2022-08-31T22:31:37.433Z,18.57
2022-08-31T22:35:41.470Z,18.52
2022-08-31T22:39:44.931Z,18.47
2022-08-31T22:43:48.418Z,18.46
2022-08-31T22:47:55.482Z,18.27
2022-08-31T22:51:58.846Z,18.12
2022-08-31T22:56:03.097Z,18.03
2022-08-31T23:00:12.023Z,17.97
2022-08-31T23:04:20.513Z,18.07
2022-08-31T23:08:25.272Z,17.95
2022-08-31T23:12:28.708Z,17.82
2022-08-31T23:16:34.723Z,17.67
2022-08-31T23:20:41.874Z,17.64
2022-08-31T23:24:47.395Z,17.50
2022-08-31T23:28:53.061Z,17.42
2022-08-31T23:32:58.826Z,17.46
2022-08-31T23:37:07.970Z,17.30
2022-08-31T23:41:13.754Z,17.10
2022-08-31T23:45:17.085Z,17.04
2022-08-31T23:49:23.506Z,17.01
2022-08-31T23:53:28.323Z,17.01
2022-08-31T23:57:33.664Z,16.91
